createdAt,value
2022-08-09T00:01:54.443Z,19.92
2022-08-09T00:04:33.713Z,19.66
2022-08-09T00:07:07.874Z,19.62
2022-08-09T00:09:39.978Z,19.72
2022-08-09T00:12:15.601Z,19.44
2022-08-09T00:14:56.650Z,19.67
2022-08-09T00:18:07.745Z,19.64
2022-08-09T00:20:15.305Z,19.46
2022-08-09T00:22:43.234Z,19.36
2022-08-09T00:25:23.375Z,19.67
2022-08-09T00:28:00.540Z,19.71
2022-08-09T00:30:33.879Z,19.71
2022-08-09T00:33:02.583Z,19.49
2022-08-09T00:35:43.360Z,19.62
2022-08-09T00:38:13.895Z,19.59
2022-08-09T00:40:52.903Z,19.61
2022-08-09T00:44:11.160Z,19.67
2022-08-09T00:46:28.410Z,19.55
2022-08-09T00:49:00.452Z,19.40
2022-08-09T00:51:33.875Z,19.38
2022-08-09T00:54:10.620Z,19.37
2022-08-09T00:56:38.392Z,19.59
2022-08-09T00:59:08.156Z,19.56
2022-08-09T01:01:45.234Z,19.68
2022-08-09T01:04:35.392Z,19.45
2022-08-09T01:08:05.584Z,19.47
2022-08-09T01:11:21.963Z,19.29
2022-08-09T01:14:18.414Z,19.42
2022-08-09T01:16:55.472Z,19.38
2022-08-09T01:20:20.729Z,19.34
2022-08-09T01:24:02.237Z,19.30
2022-08-09T01:26:36.782Z,19.34
2022-08-09T01:29:07.251Z,19.24
2022-08-09T01:32:28.199Z,19.40
2022-08-09T01:34:29.473Z,19.31
2022-08-09T01:37:00.888Z,19.25
2022-08-09T01:39:35.742Z,19.44
2022-08-09T01:42:11.248Z,19.46
2022-08-09T01:44:41.547Z,19.32
2022-08-09T01:47:11.583Z,19.34
2022-08-09T01:49:43.158Z,19.39
2022-08-09T01:52:21.250Z,19.39
2022-08-09T01:54:57.761Z,19.33
2022-08-09T01:57:40.335Z,19.37
2022-08-09T02:00:34.666Z,19.42
2022-08-09T02:03:07.458Z,19.53
2022-08-09T02:06:03.792Z,19.45
2022-08-09T02:08:58.053Z,19.43
2022-08-09T02:11:40.532Z,19.47
2022-08-09T02:14:25.425Z,19.41
2022-08-09T02:17:15.553Z,19.47
2022-08-09T02:19:46.215Z,19.51
2022-08-09T02:22:46.407Z,19.33
2022-08-09T02:25:24.603Z,19.36
2022-08-09T02:28:24.276Z,19.41
2022-08-09T02:31:06.576Z,19.16
2022-08-09T02:34:06.375Z,19.19
2022-08-09T02:36:42.342Z,19.14
2022-08-09T02:39:33.425Z,19.30
2022-08-09T02:42:29.344Z,19.30
2022-08-09T02:45:15.360Z,19.43
2022-08-09T02:47:59.225Z,19.01
2022-08-09T02:50:39.949Z,19.20
2022-08-09T02:53:26.870Z,19.34
2022-08-09T02:55:59.232Z,19.46
2022-08-09T02:58:37.137Z,19.43
2022-08-09T03:01:11.249Z,19.36
2022-08-09T03:04:16.677Z,19.30
2022-08-09T03:06:42.872Z,19.24
2022-08-09T03:09:15.780Z,19.05
2022-08-09T03:12:05.944Z,19.25
2022-08-09T03:14:39.667Z,19.14
2022-08-09T03:17:20.534Z,18.99
2022-08-09T03:20:05.281Z,19.15
2022-08-09T03:22:44.742Z,19.18
2022-08-09T03:25:26.379Z,19.17
2022-08-09T03:28:05.494Z,18.99
2022-08-09T03:30:41.125Z,18.95
2022-08-09T03:33:19.250Z,19.04
2022-08-09T03:36:13.484Z,19.01
2022-08-09T03:38:44.762Z,19.06
2022-08-09T03:41:16.715Z,18.94
2022-08-09T03:44:03.606Z,19.01
2022-08-09T03:46:36.515Z,18.99
2022-08-09T03:49:08.656Z,19.13
2022-08-09T03:51:56.331Z,19.02
2022-08-09T03:54:38.559Z,19.21
2022-08-09T03:57:20.018Z,19.14
2022-08-09T03:59:54.651Z,19.05
2022-08-09T04:02:29.689Z,19.14
2022-08-09T04:05:05.693Z,19.16
2022-08-09T04:07:52.536Z,19.14
2022-08-09T04:10:29.578Z,19.20
2022-08-09T04:13:04.050Z,19.26
2022-08-09T04:16:17.173Z,19.16
2022-08-09T04:18:22.272Z,19.11
2022-08-09T04:20:53.746Z,18.96
2022-08-09T04:23:25.029Z,19.16
2022-08-09T04:25:55.984Z,19.31
2022-08-09T04:28:33.483Z,19.21
2022-08-09T04:31:08.588Z,19.28
2022-08-09T04:33:53.113Z,19.20
2022-08-09T04:36:29.942Z,19.26
2022-08-09T04:39:04.215Z,19.23
2022-08-09T04:41:43.437Z,19.22
2022-08-09T04:44:14.596Z,19.29
2022-08-09T04:46:59.228Z,19.31
2022-08-09T04:49:53.049Z,19.30
2022-08-09T04:52:28.049Z,19.34
2022-08-09T04:55:00.174Z,19.57
2022-08-09T04:57:58.828Z,19.56
2022-08-09T05:00:19.133Z,19.51
2022-08-09T05:02:52.529Z,19.58
2022-08-09T05:05:32.471Z,19.42
2022-08-09T05:08:14.785Z,19.62
2022-08-09T05:10:44.575Z,19.53
2022-08-09T05:13:14.565Z,19.59
2022-08-09T05:15:52.113Z,19.65
2022-08-09T05:18:55.057Z,19.81
2022-08-09T05:21:23.090Z,19.66
2022-08-09T05:24:00.307Z,19.73
2022-08-09T05:26:37.376Z,19.78
2022-08-09T05:29:23.934Z,19.80
2022-08-09T05:31:57.649Z,19.83
2022-08-09T05:34:32.643Z,19.78
2022-08-09T05:37:07.238Z,19.56
2022-08-09T05:39:43.797Z,19.74
2022-08-09T05:42:17.598Z,19.84
2022-08-09T05:44:52.531Z,20.03
2022-08-09T05:47:23.868Z,19.97
2022-08-09T05:50:30.097Z,19.85
2022-08-09T05:52:53.787Z,20.04
2022-08-09T05:55:24.122Z,20.26
2022-08-09T05:57:56.650Z,20.63
2022-08-09T06:00:31.248Z,20.76
2022-08-09T06:03:10.847Z,21.13
2022-08-09T06:05:57.662Z,20.99
2022-08-09T06:08:33.402Z,21.82
2022-08-09T06:11:03.160Z,21.63
2022-08-09T06:13:47.541Z,21.81
2022-08-09T06:16:16.351Z,20.86
2022-08-09T06:18:45.553Z,20.73
2022-08-09T06:21:16.335Z,21.65
2022-08-09T06:23:58.857Z,21.73
2022-08-09T06:26:31.557Z,21.97
2022-08-09T06:29:05.120Z,21.60
2022-08-09T06:31:40.126Z,22.01
2022-08-09T06:34:26.351Z,21.87
2022-08-09T06:36:59.662Z,22.06
2022-08-09T06:39:57.422Z,22.49
2022-08-09T06:42:24.682Z,22.22
2022-08-09T06:44:57.463Z,22.63
2022-08-09T06:47:30.251Z,22.88
2022-08-09T06:50:14.050Z,22.86
2022-08-09T06:52:49.135Z,24.84
2022-08-09T06:55:24.267Z,24.39
2022-08-09T06:58:02.844Z,25.07
2022-08-09T07:00:50.510Z,25.70
2022-08-09T07:03:28.405Z,25.04
2022-08-09T07:06:04.893Z,25.09
2022-08-09T07:08:39.546Z,25.70
2022-08-09T07:11:12.604Z,26.92
2022-08-09T07:13:44.957Z,26.58
2022-08-09T07:16:49.809Z,25.43
2022-08-09T07:19:55.556Z,26.08
2022-08-09T07:22:34.819Z,27.23
2022-08-09T07:25:09.780Z,26.08
2022-08-09T07:27:53.304Z,25.13
2022-08-09T07:31:30.593Z,26.14
2022-08-09T07:34:20.711Z,27.56
2022-08-09T07:46:40.918Z,27.21
2022-08-09T07:53:13.172Z,27.50
2022-08-09T07:56:03.320Z,26.41
2022-08-09T07:58:35.344Z,27.63
2022-08-09T08:01:10.926Z,28.01
2022-08-09T08:03:40.988Z,28.21
2022-08-09T08:06:14.372Z,27.72
2022-08-09T08:09:02.415Z,27.17
2022-08-09T08:12:09.830Z,25.59
2022-08-09T08:14:24.005Z,25.62
2022-08-09T08:17:07.864Z,25.58
2022-08-09T08:19:37.867Z,26.81
2022-08-09T08:22:06.579Z,26.04
2022-08-09T08:24:40.054Z,26.39
2022-08-09T08:27:16.517Z,26.78
2022-08-09T08:29:50.070Z,27.09
2022-08-09T08:32:29.150Z,26.28
2022-08-09T08:34:59.723Z,28.01
2022-08-09T08:37:40.795Z,26.18
2022-08-09T08:40:12.210Z,27.79
2022-08-09T08:42:46.998Z,28.22
2022-08-09T08:45:51.427Z,28.30
2022-08-09T08:48:24.113Z,28.05
2022-08-09T08:50:59.253Z,28.44
2022-08-09T08:53:32.291Z,28.19
2022-08-09T08:56:16.882Z,28.57
2022-08-09T08:58:56.913Z,26.21
2022-08-09T09:01:44.687Z,28.98
2022-08-09T09:04:15.077Z,29.17
2022-08-09T09:07:00.963Z,29.24
2022-08-09T09:09:58.417Z,29.29
2022-08-09T09:12:29.279Z,29.60
2022-08-09T09:15:02.585Z,27.61
2022-08-09T09:17:49.417Z,28.78
2022-08-09T09:20:20.603Z,29.01
2022-08-09T09:23:02.056Z,28.53
2022-08-09T09:26:04.401Z,28.94
2022-08-09T09:29:01.802Z,28.82
2022-08-09T09:32:03.523Z,28.41
2022-08-09T09:34:18.417Z,29.00
2022-08-09T09:36:54.131Z,28.08
2022-08-09T09:39:50.440Z,28.58
2022-08-09T09:42:29.689Z,29.38
2022-08-09T09:45:08.323Z,29.75
2022-08-09T09:47:47.687Z,29.04
2022-08-09T09:50:23.050Z,29.65
2022-08-09T09:52:56.716Z,29.88
2022-08-09T09:55:31.356Z,29.37
2022-08-09T09:58:17.346Z,29.07
2022-08-09T10:00:58.791Z,29.52
2022-08-09T10:03:57.849Z,30.28
2022-08-09T10:06:43.507Z,30.44
2022-08-09T10:09:23.167Z,29.98
2022-08-09T10:12:35.840Z,28.93
2022-08-09T10:15:50.802Z,29.47
2022-08-09T10:18:12.864Z,28.88
2022-08-09T10:20:45.092Z,29.95
2022-08-09T10:23:20.432Z,30.04
2022-08-09T10:26:07.839Z,30.23
2022-08-09T10:28:48.595Z,30.36
2022-08-09T10:34:32.441Z,30.04
2022-08-09T10:37:00.933Z,29.59
2022-08-09T10:39:40.724Z,29.48
2022-08-09T10:42:18.720Z,29.85
2022-08-09T10:45:11.928Z,30.26
2022-08-09T10:48:30.209Z,30.01
2022-08-09T10:51:53.044Z,30.52
2022-08-09T10:54:27.009Z,29.39
2022-08-09T10:57:15.509Z,31.03
2022-08-09T10:59:57.360Z,29.54
2022-08-09T11:03:18.034Z,28.59
2022-08-09T11:05:31.010Z,30.01
2022-08-09T11:08:47.982Z,30.31
2022-08-09T11:11:21.958Z,30.93
2022-08-09T11:14:35.578Z,30.42
2022-08-09T11:17:26.553Z,29.69
2022-08-09T11:20:22.121Z,29.40
2022-08-09T11:22:56.660Z,29.97
2022-08-09T11:25:45.427Z,29.51
2022-08-09T11:28:56.351Z,29.27
2022-08-09T11:31:49.668Z,28.97
2022-08-09T11:34:54.674Z,29.59
2022-08-09T11:37:40.514Z,30.04
2022-08-09T11:40:33.921Z,29.58
2022-08-09T11:43:03.865Z,29.79
2022-08-09T11:45:42.572Z,29.67
2022-08-09T11:48:26.815Z,30.23
2022-08-09T11:52:49.142Z,30.19
2022-08-09T11:54:27.472Z,30.52
2022-08-09T11:57:56.448Z,29.62
2022-08-09T12:00:32.814Z,29.41
2022-08-09T12:03:10.021Z,28.97
2022-08-09T12:05:55.663Z,28.98
2022-08-09T12:08:26.925Z,29.27
2022-08-09T12:11:01.759Z,29.67
2022-08-09T12:14:10.228Z,29.75
2022-08-09T12:16:42.874Z,31.08
2022-08-09T12:19:13.498Z,31.15
2022-08-09T12:21:48.678Z,30.96
2022-08-09T12:24:25.175Z,31.88
2022-08-09T12:29:15.614Z,31.59
2022-08-09T12:30:02.065Z,31.09
2022-08-09T12:32:45.088Z,30.57
2022-08-09T12:35:19.215Z,31.53
2022-08-09T12:37:52.244Z,31.15
2022-08-09T12:40:27.505Z,30.96
2022-08-09T12:42:56.851Z,30.80
2022-08-09T12:45:34.381Z,30.30
2022-08-09T12:48:20.213Z,30.47
2022-08-09T12:51:00.248Z,30.48
2022-08-09T12:53:41.342Z,30.21
2022-08-09T12:56:39.973Z,30.31
2022-08-09T12:59:22.151Z,29.55
2022-08-09T13:02:02.845Z,30.30
2022-08-09T13:04:38.274Z,29.88
2022-08-09T13:07:19.825Z,30.82
2022-08-09T13:10:05.841Z,31.47
2022-08-09T13:12:40.143Z,31.52
2022-08-09T13:15:23.098Z,30.73
2022-08-09T13:18:04.721Z,30.29
2022-08-09T13:21:04.154Z,30.39
2022-08-09T13:24:16.340Z,29.89
2022-08-09T13:26:43.681Z,30.20
2022-08-09T13:29:42.093Z,30.00
2022-08-09T13:32:16.241Z,29.97
2022-08-09T13:34:48.564Z,30.30
2022-08-09T13:37:50.478Z,30.24
2022-08-09T13:41:55.142Z,29.50
2022-08-09T13:42:59.132Z,29.85
2022-08-09T13:45:32.572Z,29.89
2022-08-09T13:48:16.222Z,29.70
2022-08-09T13:50:44.900Z,29.96
2022-08-09T13:53:16.873Z,29.91
2022-08-09T13:55:47.974Z,29.08
2022-08-09T13:58:16.888Z,28.87
2022-08-09T14:00:50.546Z,29.83
2022-08-09T14:04:02.495Z,29.78
2022-08-09T14:06:19.480Z,30.15
2022-08-09T14:08:55.405Z,29.82
2022-08-09T14:11:23.961Z,30.14
2022-08-09T14:14:22.659Z,30.57
2022-08-09T14:16:41.008Z,30.28
2022-08-09T14:19:09.824Z,30.28
2022-08-09T14:21:38.531Z,30.31
2022-08-09T14:24:18.776Z,29.83
2022-08-09T14:26:55.826Z,30.16
2022-08-09T14:30:34.863Z,29.97
2022-08-09T14:32:16.394Z,29.93
2022-08-09T14:34:55.797Z,30.23
2022-08-09T14:37:28.456Z,30.53
2022-08-09T14:39:57.236Z,30.25
2022-08-09T14:42:31.102Z,29.96
2022-08-09T14:46:46.136Z,29.30
2022-08-09T14:48:02.320Z,29.10
2022-08-09T14:50:35.185Z,29.63
2022-08-09T14:53:13.091Z,29.71
2022-08-09T14:55:49.963Z,29.61
2022-08-09T14:58:19.862Z,29.53
2022-08-09T15:00:51.090Z,29.44
2022-08-09T15:03:21.210Z,28.77
2022-08-09T15:05:53.771Z,29.03
2022-08-09T15:08:25.798Z,29.80
2022-08-09T15:11:01.393Z,29.72
2022-08-09T15:13:48.080Z,29.53
2022-08-09T15:16:23.057Z,30.16
2022-08-09T15:18:59.728Z,29.82
2022-08-09T15:21:56.202Z,29.34
2022-08-09T15:24:23.385Z,29.92
2022-08-09T15:26:55.753Z,29.82
2022-08-09T15:30:55.431Z,29.58
2022-08-09T15:32:29.707Z,29.18
2022-08-09T15:35:00.998Z,29.64
2022-08-09T15:37:56.773Z,29.26
2022-08-09T15:40:32.023Z,29.19
2022-08-09T15:43:02.514Z,29.18
2022-08-09T15:46:08.084Z,28.84
2022-08-09T15:48:28.862Z,28.75
2022-08-09T15:51:01.119Z,29.13
2022-08-09T15:54:03.905Z,29.01
2022-08-09T15:56:21.736Z,28.64
2022-08-09T15:58:58.505Z,28.63
2022-08-09T16:01:27.497Z,28.44
2022-08-09T16:04:00.194Z,28.57
2022-08-09T16:06:34.791Z,28.64
2022-08-09T16:09:06.704Z,28.36
2022-08-09T16:11:35.340Z,28.62
2022-08-09T16:14:07.898Z,28.30
2022-08-09T16:16:41.985Z,28.42
2022-08-09T16:19:14.583Z,28.44
2022-08-09T16:21:51.655Z,28.22
2022-08-09T16:24:33.797Z,28.35
2022-08-09T16:27:05.225Z,28.45
2022-08-09T16:29:37.342Z,28.15
2022-08-09T16:32:49.633Z,28.24
2022-08-09T16:35:07.837Z,28.45
2022-08-09T16:37:56.047Z,28.21
2022-08-09T16:40:29.644Z,27.99
2022-08-09T16:43:09.358Z,28.00
2022-08-09T16:45:43.883Z,27.94
2022-08-09T16:48:39.805Z,27.85
2022-08-09T16:51:08.189Z,27.95
2022-08-09T16:54:22.458Z,27.85
2022-08-09T16:56:35.139Z,27.73
2022-08-09T16:59:10.553Z,27.79
2022-08-09T17:01:42.276Z,27.87
2022-08-09T17:04:25.522Z,27.95
2022-08-09T17:08:45.077Z,27.82
2022-08-09T17:09:47.317Z,27.73
2022-08-09T17:12:17.579Z,27.63
2022-08-09T17:14:48.606Z,27.64
2022-08-09T17:17:26.519Z,27.63
2022-08-09T17:20:28.534Z,27.57
2022-08-09T17:22:51.672Z,27.43
2022-08-09T17:25:23.501Z,27.52
2022-08-09T17:27:55.237Z,27.48
2022-08-09T17:30:30.754Z,27.38
2022-08-09T17:33:05.734Z,27.23
2022-08-09T17:35:51.659Z,27.17
2022-08-09T17:38:32.293Z,27.03
2022-08-09T17:41:05.715Z,26.97
2022-08-09T17:43:37.331Z,26.99
2022-08-09T17:46:09.852Z,26.58
2022-08-09T17:48:46.537Z,26.80
2022-08-09T17:51:22.532Z,26.33
2022-08-09T17:53:55.008Z,26.74
2022-08-09T17:56:32.447Z,26.15
2022-08-09T17:59:09.245Z,26.27
2022-08-09T18:02:11.717Z,25.90
2022-08-09T18:04:33.078Z,26.11
2022-08-09T18:07:07.473Z,25.69
2022-08-09T18:09:41.942Z,25.57
2022-08-09T18:12:19.326Z,25.49
2022-08-09T18:14:56.645Z,25.42
2022-08-09T18:18:02.389Z,25.57
2022-08-09T18:21:00.102Z,25.21
2022-08-09T18:23:08.305Z,25.30
2022-08-09T18:25:58.138Z,25.18
2022-08-09T18:30:40.356Z,25.17
2022-08-09T18:31:32.245Z,25.14
2022-08-09T18:34:08.956Z,25.07
2022-08-09T18:36:38.596Z,24.81
2022-08-09T18:39:11.133Z,24.87
2022-08-09T18:42:14.020Z,24.62
2022-08-09T18:44:45.465Z,24.52
2022-08-09T18:47:19.502Z,24.49
2022-08-09T18:49:54.236Z,24.58
2022-08-09T18:52:24.867Z,24.42
2022-08-09T18:55:05.566Z,24.42
2022-08-09T18:57:45.434Z,24.39
2022-08-09T19:00:20.213Z,24.65
2022-08-09T19:02:51.293Z,24.38
2022-08-09T19:05:28.696Z,24.25
2022-08-09T19:08:19.625Z,24.22
2022-08-09T19:10:50.678Z,24.21
2022-08-09T19:13:23.632Z,24.00
2022-08-09T19:16:09.191Z,23.95
2022-08-09T19:18:44.321Z,23.84
2022-08-09T19:21:15.455Z,23.76
2022-08-09T19:24:31.980Z,23.70
2022-08-09T19:26:38.575Z,23.66
2022-08-09T19:29:18.418Z,23.66
2022-08-09T19:31:51.451Z,23.52
2022-08-09T19:34:24.830Z,23.51
2022-08-09T19:37:00.131Z,23.40
2022-08-09T19:40:02.597Z,23.53
2022-08-09T19:42:20.431Z,23.36
2022-08-09T19:44:57.761Z,23.29
2022-08-09T19:47:27.467Z,23.11
2022-08-09T19:50:08.331Z,23.13
2022-08-09T19:52:52.042Z,23.05
2022-08-09T19:55:30.813Z,22.99
2022-08-09T19:58:16.351Z,22.92
2022-08-09T20:00:47.600Z,23.07
2022-08-09T20:04:07.181Z,22.92
2022-08-09T20:06:22.749Z,22.72
2022-08-09T20:08:56.796Z,22.86
2022-08-09T20:11:43.173Z,22.74
2022-08-09T20:14:15.735Z,22.86
2022-08-09T20:16:54.011Z,22.57
2022-08-09T20:19:47.880Z,22.86
2022-08-09T20:22:14.844Z,22.74
2022-08-09T20:24:51.370Z,22.76
2022-08-09T20:27:24.103Z,22.61
2022-08-09T20:29:52.783Z,22.34
2022-08-09T20:32:30.186Z,22.40
2022-08-09T20:35:02.955Z,22.67
2022-08-09T20:38:21.868Z,22.26
2022-08-09T20:40:28.087Z,22.18
2022-08-09T20:43:17.889Z,22.38
2022-08-09T20:45:59.709Z,22.40
2022-08-09T20:48:32.050Z,22.23
2022-08-09T20:51:02.917Z,22.27
2022-08-09T20:53:36.704Z,22.10
2022-08-09T20:56:21.302Z,22.26
2022-08-09T20:58:54.268Z,22.04
2022-08-09T21:01:35.121Z,22.02
2022-08-09T21:05:51.412Z,22.13
2022-08-09T21:07:13.026Z,22.09
2022-08-09T21:09:56.643Z,21.78
2022-08-09T21:15:23.702Z,21.63
2022-08-09T21:18:21.163Z,21.98
2022-08-09T21:20:54.406Z,21.91
2022-08-09T21:23:35.954Z,21.67
2022-08-09T21:26:15.526Z,21.39
2022-08-09T21:28:55.663Z,21.48
2022-08-09T21:31:48.704Z,21.46
2022-08-09T21:34:28.554Z,21.40
2022-08-09T21:36:58.060Z,21.80
2022-08-09T21:39:27.785Z,21.70
2022-08-09T21:42:12.079Z,21.71
2022-08-09T21:44:42.838Z,21.69
2022-08-09T21:47:18.249Z,21.46
2022-08-09T21:49:48.299Z,21.69
2022-08-09T21:52:20.711Z,21.37
2022-08-09T21:55:02.852Z,21.19
2022-08-09T21:57:59.238Z,21.18
2022-08-09T22:00:36.637Z,21.10
2022-08-09T22:03:19.124Z,21.09
2022-08-09T22:05:55.715Z,21.12
2022-08-09T22:08:26.745Z,21.11
2022-08-09T22:11:05.083Z,21.17
2022-08-09T22:13:45.159Z,21.31
2022-08-09T22:16:13.548Z,21.75
2022-08-09T22:18:54.821Z,21.46
2022-08-09T22:21:45.337Z,21.25
2022-08-09T22:24:21.022Z,21.16
2022-08-09T22:26:54.992Z,21.20
2022-08-09T22:29:32.242Z,21.48
2022-08-09T22:32:30.214Z,21.31
2022-08-09T22:35:06.324Z,21.26
2022-08-09T22:37:49.473Z,21.09
2022-08-09T22:40:36.468Z,20.98
2022-08-09T22:43:08.711Z,21.13
2022-08-09T22:48:10.774Z,21.27
2022-08-09T22:48:36.014Z,21.52
2022-08-09T22:51:10.963Z,21.22
2022-08-09T22:54:02.072Z,21.13
2022-08-09T22:56:33.907Z,20.90
2022-08-09T22:59:05.978Z,20.80
2022-08-09T23:01:53.644Z,20.85
2022-08-09T23:04:22.127Z,20.77
2022-08-09T23:07:16.170Z,20.97
2022-08-09T23:09:44.666Z,20.80
2022-08-09T23:12:13.147Z,20.47
2022-08-09T23:14:44.399Z,20.50
2022-08-09T23:17:13.971Z,20.59
2022-08-09T23:20:06.933Z,20.55
2022-08-09T23:22:30.900Z,20.60
2022-08-09T23:24:59.339Z,20.77
2022-08-09T23:27:27.781Z,21.12
2022-08-09T23:29:56.177Z,21.03
2022-08-09T23:32:25.695Z,20.54
2022-08-09T23:34:54.093Z,20.43
2022-08-09T23:37:25.490Z,19.94
2022-08-09T23:39:54.108Z,19.95
2022-08-09T23:42:22.469Z,19.78
2022-08-09T23:44:51.970Z,19.67
2022-08-09T23:47:20.415Z,19.94
2022-08-09T23:49:48.805Z,19.73
2022-08-09T23:52:17.276Z,19.73
2022-08-09T23:54:46.822Z,19.65
2022-08-09T23:57:18.593Z,20.00
